Time;durP1;ratioP1;P1;durP2;ratioP2;P2;SDS_P1;SDS_P2;PMS_P1;PMS_P2;Temp;Humidity;BMP_temperature;BMP_pressure;BME280_temperature;BME280_humidity;BME280_pressure;Samples;Min_cycle;Max_cycle;Signal;HPM_P1;HPM_P2
2023/12/10 00:01:20;;;;;;;33.67;13.73;;;;;;;-1.21;91.68;100727.00;126138;1086;104235;-74
2023/12/10 00:03:49;;;;;;;31.43;13.40;;;;;;;-1.23;91.92;100725.98;126450;1086;102314;-74
2023/12/10 00:06:17;;;;;;;26.77;10.83;;;;;;;-1.24;92.02;100726.73;126423;1086;101935;-74
2023/12/10 00:08:46;;;;;;;23.63;9.27;;;;;;;-1.27;92.08;100735.09;126439;1086;104193;-73
2023/12/10 00:11:16;;;;;;;22.73;9.00;;;;;;;-1.25;91.22;100740.37;126390;1086;101921;-74
2023/12/10 00:13:45;;;;;;;25.10;9.70;;;;;;;-1.22;91.68;100732.02;126408;1086;104155;-74
2023/12/10 00:16:14;;;;;;;28.87;11.43;;;;;;;-1.22;91.14;100738.06;126459;1086;104206;-74
2023/12/10 00:18:43;;;;;;;30.80;12.90;;;;;;;-1.16;91.46;100722.25;126462;1086;104152;-74
2023/12/10 00:21:14;;;;;;;27.63;11.47;;;;;;;-1.06;92.32;100723.92;126447;1086;104344;-74
2023/12/10 00:23:43;;;;;;;30.07;12.10;;;;;;;-1.00;92.27;100722.77;126405;1086;104203;-74
2023/12/10 00:26:12;;;;;;;26.07;10.73;;;;;;;-0.94;92.38;100725.86;126363;1086;107085;-74
2023/12/10 00:28:41;;;;;;;19.67;7.97;;;;;;;-0.92;91.78;100728.56;126441;1086;102141;-74
2023/12/10 00:31:12;;;;;;;17.93;7.17;;;;;;;-0.95;91.03;100730.88;126404;1086;104268;-74
2023/12/10 00:33:41;;;;;;;17.43;7.10;;;;;;;-1.03;90.60;100735.37;126431;1086;104207;-73
2023/12/10 00:36:10;;;;;;;16.50;6.97;;;;;;;-1.08;90.99;100721.22;126420;1086;101925;-74
2023/12/10 00:38:39;;;;;;;16.47;6.90;;;;;;;-1.10;91.24;100723.66;126417;1086;104257;-73
2023/12/10 00:41:11;;;;;;;15.00;6.10;;;;;;;-1.13;90.56;100718.25;126379;1086;104191;-73
2023/12/10 00:43:41;;;;;;;14.87;6.30;;;;;;;-1.19;90.70;100712.57;126416;1086;104162;-74
2023/12/10 00:46:10;;;;;;;14.43;6.47;;;;;;;-1.19;90.71;100712.57;126394;1086;105594;-74
2023/12/10 00:48:40;;;;;;;17.53;6.67;;;;;;;-1.15;91.91;100713.76;126447;1086;104311;-74
2023/12/10 00:51:17;;;;;;;17.23;7.20;;;;;;;-1.15;91.76;100712.08;126390;1086;102251;-74
2023/12/10 00:53:46;;;;;;;14.80;6.50;;;;;;;-1.09;92.06;100712.59;126420;1086;104241;-74
2023/12/10 00:56:15;;;;;;;15.57;6.77;;;;;;;-1.04;91.45;100707.84;126402;1086;104100;-74
2023/12/10 00:58:44;;;;;;;16.60;6.40;;;;;;;-1.01;92.06;100713.25;126445;1086;104178;-74
2023/12/10 01:01:13;;;;;;;15.57;5.97;;;;;;;-1.02;91.07;100719.16;126452;1086;101980;-73
2023/12/10 01:03:42;;;;;;;15.00;6.20;;;;;;;-1.02;91.89;100715.70;126109;1089;104270;-74
2023/12/10 01:06:11;;;;;;;17.10;5.90;;;;;;;-1.04;91.85;100709.49;126404;1086;104162;-74
2023/12/10 01:08:40;;;;;;;14.40;6.07;;;;;;;-1.01;91.16;100708.10;126411;1086;104225;-73
2023/12/10 01:11:09;;;;;;;15.43;6.00;;;;;;;-0.97;92.04;100699.84;126407;1086;104612;-74
2023/12/10 01:13:38;;;;;;;16.10;6.13;;;;;;;-1.01;91.86;100697.80;126413;1086;104213;-73
2023/12/10 01:16:09;;;;;;;14.13;5.70;;;;;;;-1.11;91.43;100697.77;126373;1086;104153;-74
2023/12/10 01:18:37;;;;;;;11.97;5.37;;;;;;;-1.19;90.62;100696.23;126422;1086;104248;-74
2023/12/10 01:21:09;;;;;;;14.20;6.03;;;;;;;-1.20;91.71;100696.98;126405;1086;104277;-74
2023/12/10 01:23:38;;;;;;;16.43;6.37;;;;;;;-1.13;91.81;100697.64;126229;1086;104239;-74
2023/12/10 01:26:09;;;;;;;17.13;6.43;;;;;;;-1.06;91.87;100696.52;126446;1086;102009;-74
2023/12/10 01:28:38;;;;;;;14.43;6.10;;;;;;;-1.04;92.25;100694.96;126417;1086;101906;-75
2023/12/10 01:31:07;;;;;;;12.20;5.73;;;;;;;-1.07;91.74;100691.23;126162;1086;104253;-74
2023/12/10 01:33:36;;;;;;;14.80;6.07;;;;;;;-1.03;91.82;100685.55;126456;1086;104168;-74
2023/12/10 01:36:07;;;;;;;14.57;6.13;;;;;;;-0.98;91.44;100681.68;126459;1085;101906;-74
2023/12/10 01:38:36;;;;;;;16.37;6.63;;;;;;;-0.92;92.02;100682.20;126450;1086;104225;-74
2023/12/10 01:41:06;;;;;;;15.43;6.00;;;;;;;-0.86;92.45;100684.40;126378;1086;101873;-74
2023/12/10 01:43:36;;;;;;;14.43;6.83;;;;;;;-0.83;91.73;100693.28;126508;1086;104193;-74
2023/12/10 01:46:05;;;;;;;19.07;6.77;;;;;;;-0.80;91.71;100680.66;126360;1086;104228;-74
2023/12/10 01:48:35;;;;;;;16.80;6.73;;;;;;;-0.80;91.28;100680.66;126467;1086;104159;-74
2023/12/10 01:51:05;;;;;;;15.43;6.40;;;;;;;-0.81;91.07;100684.02;126428;1086;102585;-74
2023/12/10 01:53:35;;;;;;;14.83;6.23;;;;;;;-0.76;91.63;100695.61;126429;1086;101915;-75
2023/12/10 01:56:07;;;;;;;15.93;6.13;;;;;;;-0.84;90.74;100693.14;126435;1086;104243;-74
2023/12/10 01:58:36;;;;;;;17.20;6.70;;;;;;;-0.97;90.67;100694.69;126420;1086;102338;-74
2023/12/10 02:01:06;;;;;;;15.37;6.50;;;;;;;-1.03;91.37;100688.13;126427;1086;104251;-74
2023/12/10 02:03:35;;;;;;;15.17;6.23;;;;;;;-1.11;90.88;100690.97;126041;1086;104241;-74
2023/12/10 02:06:05;;;;;;;14.27;6.47;;;;;;;-1.14;91.12;100687.21;126403;1086;104277;-74
2023/12/10 02:08:33;;;;;;;17.17;7.27;;;;;;;-1.18;91.39;100683.48;126455;1086;101944;-74
2023/12/10 02:11:02;;;;;;;16.83;6.60;;;;;;;-1.22;91.41;100688.24;126400;1086;102085;-74
2023/12/10 02:13:31;;;;;;;18.97;7.60;;;;;;;-1.25;91.52;100690.55;126437;1085;104210;-74
2023/12/10 02:16:01;;;;;;;17.20;7.57;;;;;;;-1.28;91.95;100696.33;126402;1086;104316;-74
2023/12/10 02:18:30;;;;;;;20.30;8.17;;;;;;;-1.29;91.05;100694.55;126469;1086;104235;-74
2023/12/10 02:20:59;;;;;;;17.73;7.53;;;;;;;-1.27;91.77;100699.03;126475;1086;101864;-74
2023/12/10 02:23:47;;;;;;;19.17;8.57;;;;;;;-1.28;91.12;100706.63;126481;1086;104356;-74
2023/12/10 02:26:16;;;;;;;19.20;7.60;;;;;;;-1.31;91.37;100708.94;126433;1086;104159;-74
2023/12/10 02:28:45;;;;;;;20.83;8.93;;;;;;;-1.32;91.80;100704.58;126462;1086;104244;-74
2023/12/10 02:31:14;;;;;;;19.13;8.03;;;;;;;-1.33;91.89;100705.34;126491;1086;104169;-74
2023/12/10 02:33:43;;;;;;;18.93;8.20;;;;;;;-1.33;91.75;100707.92;126465;1086;101899;-74
2023/12/10 02:36:12;;;;;;;20.00;8.73;;;;;;;-1.34;91.12;100711.25;126386;1086;104270;-74
2023/12/10 02:38:41;;;;;;;21.27;8.80;;;;;;;-1.36;92.07;100710.23;126421;1086;104302;-74
2023/12/10 02:41:10;;;;;;;19.00;8.13;;;;;;;-1.36;91.24;100708.55;126437;1086;102332;-74
2023/12/10 02:43:39;;;;;;;18.80;8.17;;;;;;;-1.35;91.68;100709.47;126399;1086;104232;-74
2023/12/10 02:46:08;;;;;;;20.37;8.17;;;;;;;-1.34;92.40;100707.03;126518;1086;101896;-74
2023/12/10 02:48:37;;;;;;;20.77;8.37;;;;;;;-1.34;91.71;100703.53;126422;1086;104155;-74
2023/12/10 02:51:07;;;;;;;19.27;8.13;;;;;;;-1.33;91.41;100695.05;126451;1086;104152;-74
2023/12/10 02:53:36;;;;;;;19.33;8.20;;;;;;;-1.27;93.09;100700.72;126472;1086;104152;-74
2023/12/10 02:56:07;;;;;;;21.00;8.50;;;;;;;-1.23;92.42;100691.58;126424;1086;104235;-74
2023/12/10 02:58:36;;;;;;;20.60;7.83;;;;;;;-1.24;92.81;100690.69;126446;1086;104152;-74
2023/12/10 03:01:06;;;;;;;19.07;8.57;;;;;;;-1.25;92.40;100691.45;126400;1086;104152;-74
2023/12/10 03:03:35;;;;;;;20.87;8.10;;;;;;;-1.26;92.69;100684.52;126075;1089;104312;-74
2023/12/10 03:06:06;;;;;;;20.27;8.03;;;;;;;-1.24;92.38;100677.81;126484;1086;101860;-74
2023/12/10 03:08:35;;;;;;;20.70;8.83;;;;;;;-1.22;92.25;100675.37;126385;1086;104235;-74
2023/12/10 03:11:04;;;;;;;21.30;8.43;;;;;;;-1.23;92.30;100683.85;126440;1086;104219;-74
2023/12/10 03:13:33;;;;;;;19.10;8.57;;;;;;;-1.25;92.08;100676.00;126061;1086;104153;-74
2023/12/10 03:16:03;;;;;;;18.50;8.07;;;;;;;-1.24;91.75;100679.50;126025;1089;101925;-74
2023/12/10 03:18:33;;;;;;;18.57;7.83;;;;;;;-1.27;91.56;100682.70;126048;1086;102584;-74
2023/12/10 03:21:02;;;;;;;18.37;7.40;;;;;;;-1.25;92.23;100680.25;126083;1086;104159;-74
2023/12/10 03:23:31;;;;;;;16.23;6.70;;;;;;;-1.25;92.44;100682.83;126453;1086;104158;-74
2023/12/10 03:26:00;;;;;;;18.63;7.27;;;;;;;-1.23;92.37;100681.28;126458;1086;101899;-74
2023/12/10 03:28:29;;;;;;;16.67;7.10;;;;;;;-1.14;92.52;100685.56;126106;1089;102046;-74
2023/12/10 03:30:58;;;;;;;14.60;6.20;;;;;;;-1.11;92.64;100672.95;126481;1086;104155;-74
2023/12/10 03:33:27;;;;;;;11.73;5.77;;;;;;;-1.10;92.25;100674.73;126505;1086;104225;-73
2023/12/10 03:35:56;;;;;;;15.33;6.37;;;;;;;-1.05;92.10;100679.38;126054;1086;104149;-74
2023/12/10 03:38:25;;;;;;;17.47;6.87;;;;;;;-1.01;92.31;100676.27;126391;1086;102619;-74
2023/12/10 03:40:53;;;;;;;16.83;7.33;;;;;;;-1.01;92.46;100668.54;126479;1086;104303;-74
2023/12/10 03:43:22;;;;;;;18.93;7.70;;;;;;;-0.99;92.32;100679.90;126514;1086;101967;-74
2023/12/10 03:45:51;;;;;;;18.50;7.87;;;;;;;-0.96;93.03;100669.85;126432;1086;104152;-74
2023/12/10 03:48:20;;;;;;;20.77;8.73;;;;;;;-0.93;91.90;100672.69;126029;1089;104143;-74
2023/12/10 03:50:51;;;;;;;19.50;8.20;;;;;;;-0.93;92.96;100675.27;126431;1086;104194;-74
2023/12/10 03:53:20;;;;;;;20.30;8.40;;;;;;;-0.91;92.54;100668.55;126063;1086;101963;-74
2023/12/10 03:55:49;;;;;;;20.37;9.40;;;;;;;-0.88;92.74;100663.66;126080;1086;104615;-74
2023/12/10 03:58:18;;;;;;;23.37;9.87;;;;;;;-0.83;92.73;100671.77;125991;1086;104031;-74
2023/12/10 04:00:47;;;;;;;18.47;8.47;;;;;;;-0.79;92.67;100676.42;126471;1086;104223;-74
2023/12/10 04:03:16;;;;;;;17.80;7.90;;;;;;;-0.78;93.11;100668.82;126445;1086;102239;-73
2023/12/10 04:05:45;;;;;;;19.07;8.27;;;;;;;-0.75;92.95;100671.66;126471;1086;101925;-74
2023/12/10 04:08:13;;;;;;;14.30;6.57;;;;;;;-0.73;92.53;100674.36;126400;1086;104283;-74
2023/12/10 04:10:43;;;;;;;13.93;6.60;;;;;;;-0.74;92.42;100683.74;126413;1086;101957;-74
2023/12/10 04:13:11;;;;;;;15.30;7.13;;;;;;;-0.71;93.08;100689.95;126075;1086;104172;-74
2023/12/10 04:15:41;;;;;;;16.33;7.13;;;;;;;-0.69;92.12;100685.81;126043;1086;104294;-74
2023/12/10 04:18:11;;;;;;;15.43;7.33;;;;;;;-0.66;92.59;100683.49;126079;1086;102197;-74
2023/12/10 04:20:44;;;;;;;19.47;7.90;;;;;;;-0.65;92.29;100683.63;126428;1086;118293;-74
2023/12/10 04:23:13;;;;;;;16.93;7.70;;;;;;;-0.63;92.98;100671.75;126392;1086;101966;-74
2023/12/10 04:25:42;;;;;;;17.97;8.33;;;;;;;-0.60;92.99;100681.42;126432;1086;104258;-74
2023/12/10 04:28:11;;;;;;;17.83;8.20;;;;;;;-0.60;92.66;100674.58;126140;1086;101982;-74
2023/12/10 04:30:40;;;;;;;18.90;8.63;;;;;;;-0.61;92.72;100674.45;126060;1086;104200;-74
2023/12/10 04:33:09;;;;;;;19.80;8.50;;;;;;;-0.63;92.95;100678.59;126514;1086;104161;-74
2023/12/10 04:35:37;;;;;;;19.00;8.63;;;;;;;-0.65;92.06;100683.63;126426;1086;104232;-74
2023/12/10 04:38:06;;;;;;;19.20;8.25;;;;;;;-0.64;92.18;100681.93;126463;1086;104273;-74
2023/12/10 04:40:35;;;;;;;16.65;6.85;;;;;;;-0.63;92.21;100681.17;126473;1086;103585;-74
2023/12/10 04:43:04;;;;;;;15.53;7.17;;;;;;;-0.65;92.00;100687.89;126520;1086;104184;-74
2023/12/10 04:45:33;;;;;;;16.07;7.27;;;;;;;-0.67;92.61;100681.67;126564;1086;104197;-74
2023/12/10 04:48:02;;;;;;;15.63;7.00;;;;;;;-0.67;92.42;100679.10;126430;1086;102082;-73
2023/12/10 04:50:31;;;;;;;16.70;7.47;;;;;;;-0.70;91.90;100686.58;126158;1086;103633;-74
2023/12/10 04:53:00;;;;;;;14.80;6.77;;;;;;;-0.71;92.38;100690.84;126476;1086;104231;-74
2023/12/10 04:55:29;;;;;;;15.90;7.03;;;;;;;-0.71;92.56;100679.64;126120;1089;104194;-74
2023/12/10 04:57:58;;;;;;;16.70;7.03;;;;;;;-0.72;92.74;100681.30;126103;1086;102596;-73
2023/12/10 05:00:27;;;;;;;15.87;7.00;;;;;;;-0.69;92.66;100671.23;126394;1086;102370;-74
2023/12/10 05:02:56;;;;;;;16.53;7.40;;;;;;;-0.66;92.95;100678.34;126556;1086;104204;-74
2023/12/10 05:05:24;;;;;;;18.40;7.73;;;;;;;-0.66;92.61;100673.19;126511;1086;104203;-74
2023/12/10 05:07:53;;;;;;;17.33;7.70;;;;;;;-0.65;92.08;100667.27;126463;1086;104216;-74
2023/12/10 05:10:23;;;;;;;19.40;8.80;;;;;;;-0.65;92.01;100669.84;126403;1086;104152;-73
2023/12/10 05:12:52;;;;;;;16.90;7.97;;;;;;;-0.63;92.01;100670.86;126552;1086;104161;-74
2023/12/10 05:15:21;;;;;;;18.20;8.40;;;;;;;-0.62;92.03;100675.25;126426;1086;102032;-74
2023/12/10 05:17:50;;;;;;;20.03;8.33;;;;;;;-0.59;92.33;100667.77;126449;1086;104200;-74
2023/12/10 05:20:19;;;;;;;17.67;7.43;;;;;;;-0.56;92.54;100670.61;126466;1086;101896;-74
2023/12/10 05:22:48;;;;;;;19.37;8.10;;;;;;;-0.56;92.55;100662.88;126434;1086;104184;-74
2023/12/10 05:25:17;;;;;;;17.50;8.03;;;;;;;-0.59;92.53;100670.35;126459;1086;104202;-73
2023/12/10 05:27:46;;;;;;;21.07;8.83;;;;;;;-0.69;91.67;100671.23;126109;1086;104207;-73
2023/12/10 05:30:15;;;;;;;19.00;8.63;;;;;;;-0.75;92.25;100681.96;126430;1086;102062;-74
2023/12/10 05:32:44;;;;;;;20.63;8.87;;;;;;;-0.76;92.24;100680.14;126152;1086;101958;-74
2023/12/10 05:35:13;;;;;;;19.63;9.23;;;;;;;-0.74;92.43;100678.59;126461;1086;104228;-74
2023/12/10 05:37:42;;;;;;;19.80;8.77;;;;;;;-0.75;91.91;100681.03;126587;1086;104399;-74
2023/12/10 05:40:12;;;;;;;22.70;10.47;;;;;;;-0.78;91.87;100679.12;126475;1086;104384;-73
2023/12/10 05:42:41;;;;;;;22.67;10.67;;;;;;;-0.82;92.48;100679.63;126208;1090;104162;-73
2023/12/10 05:45:10;;;;;;;24.87;11.47;;;;;;;-0.83;92.30;100682.08;126470;1086;102594;-74
2023/12/10 05:47:39;;;;;;;25.43;12.43;;;;;;;-0.84;92.62;100670.88;126069;1086;104168;-74
2023/12/10 05:50:10;;;;;;;23.67;11.47;;;;;;;-0.83;92.10;100667.51;126476;1086;104285;-74
2023/12/10 05:52:38;;;;;;;23.83;12.17;;;;;;;-0.82;92.74;100669.33;126552;1086;104203;-74
2023/12/10 05:55:09;;;;;;;25.10;11.90;;;;;;;-0.79;92.97;100669.58;126163;1086;104168;-74
2023/12/10 05:57:38;;;;;;;27.77;12.23;;;;;;;-0.76;92.48;100667.27;126607;1085;104187;-74
2023/12/10 06:00:09;;;;;;;21.17;9.87;;;;;;;-0.74;92.96;100669.97;126167;1086;101895;-75
2023/12/10 06:02:38;;;;;;;21.77;9.33;;;;;;;-0.73;92.01;100685.55;126717;1086;104279;-74
2023/12/10 06:05:08;;;;;;;21.23;9.87;;;;;;;-0.73;92.64;100684.67;126196;1086;101928;-73
2023/12/10 06:07:37;;;;;;;20.40;8.77;;;;;;;-0.73;92.67;100690.71;126173;1086;104213;-74
2023/12/10 06:10:07;;;;;;;19.93;9.03;;;;;;;-0.78;91.82;100691.09;126538;1085;101980;-74
2023/12/10 06:12:36;;;;;;;22.83;9.53;;;;;;;-0.78;92.00;100696.24;126511;1086;101874;-74
2023/12/10 06:15:07;;;;;;;19.60;9.10;;;;;;;-0.76;92.77;100689.56;126503;1086;104171;-73
2023/12/10 06:17:36;;;;;;;19.47;8.50;;;;;;;-0.74;92.91;100683.74;126575;1086;104184;-74
2023/12/10 06:20:08;;;;;;;18.87;8.53;;;;;;;-0.71;92.41;100687.38;126484;1086;104200;-74
2023/12/10 06:22:37;;;;;;;19.93;8.43;;;;;;;-0.66;92.38;100686.06;126496;1086;101832;-74
2023/12/10 06:25:06;;;;;;;19.43;8.53;;;;;;;-0.63;92.72;100691.48;126525;1086;104155;-74
2023/12/10 06:27:35;;;;;;;19.27;8.83;;;;;;;-0.60;92.20;100707.20;126557;1086;102836;-74
2023/12/10 06:30:06;;;;;;;17.70;7.77;;;;;;;-0.56;92.51;100699.85;126476;1086;104100;-74
2023/12/10 06:32:35;;;;;;;19.97;9.00;;;;;;;-0.53;92.27;100696.64;126427;1086;104210;-74
2023/12/10 06:35:05;;;;;;;16.83;7.33;;;;;;;-0.48;92.61;100684.09;126533;1086;104238;-74
2023/12/10 06:37:33;;;;;;;17.70;7.10;;;;;;;-0.48;92.52;100685.02;126498;1086;104126;-73
2023/12/10 06:40:03;;;;;;;15.07;6.63;;;;;;;-0.46;91.80;100687.72;126559;1085;104184;-74
2023/12/10 06:42:32;;;;;;;16.20;6.90;;;;;;;-0.45;92.40;100687.84;126505;1086;104168;-74
2023/12/10 06:45:02;;;;;;;15.73;6.77;;;;;;;-0.42;92.10;100685.52;126524;1086;104186;-74
2023/12/10 06:47:31;;;;;;;15.85;6.80;;;;;;;-0.39;92.18;100690.01;126541;1086;101926;-73
2023/12/10 06:50:00;;;;;;;14.00;6.43;;;;;;;-0.37;92.06;100688.48;126580;1086;102061;-73
2023/12/10 06:52:30;;;;;;;13.90;6.30;;;;;;;-0.36;92.80;100690.27;126171;1086;104196;-74
2023/12/10 06:54:59;;;;;;;16.03;6.70;;;;;;;-0.31;92.33;100698.37;126332;1086;104167;-74
2023/12/10 06:57:27;;;;;;;14.47;6.60;;;;;;;-0.30;91.65;100685.61;126259;1086;104232;-74
2023/12/10 06:59:57;;;;;;;16.37;6.83;;;;;;;-0.28;92.61;100685.73;126301;1086;102393;-74
2023/12/10 07:02:26;;;;;;;15.70;6.87;;;;;;;-0.24;92.88;100685.22;126366;1086;102389;-74
2023/12/10 07:04:55;;;;;;;14.90;6.60;;;;;;;-0.21;92.04;100685.47;126040;1086;104043;-73
2023/12/10 07:07:24;;;;;;;15.87;6.67;;;;;;;-0.24;91.96;100688.69;126443;1086;101835;-74
2023/12/10 07:09:53;;;;;;;16.67;6.77;;;;;;;-0.23;92.25;100687.92;126058;1087;101849;-74
2023/12/10 07:12:21;;;;;;;16.53;7.57;;;;;;;-0.20;92.13;100689.86;126498;1086;102090;-73
2023/12/10 07:14:50;;;;;;;16.37;7.20;;;;;;;-0.21;92.09;100694.09;126506;1086;104274;-73
2023/12/10 07:17:19;;;;;;;18.27;7.17;;;;;;;-0.25;91.80;100693.72;126451;1086;101817;-73
2023/12/10 07:19:49;;;;;;;17.13;7.43;;;;;;;-0.26;91.50;100692.83;126501;1086;104231;-73
2023/12/10 07:22:18;;;;;;;16.63;7.53;;;;;;;-0.23;92.25;100687.03;126437;1086;104283;-74
2023/12/10 07:24:47;;;;;;;18.27;7.70;;;;;;;-0.20;92.04;100685.59;126431;1086;104271;-73
2023/12/10 07:27:15;;;;;;;18.00;8.30;;;;;;;-0.13;91.93;100691.25;126519;1086;102037;-73
2023/12/10 07:29:44;;;;;;;18.50;8.50;;;;;;;-0.12;91.47;100693.07;126465;1086;104213;-73
2023/12/10 07:32:13;;;;;;;17.40;7.93;;;;;;;-0.13;91.45;100707.63;126431;1086;104204;-74
2023/12/10 07:34:42;;;;;;;17.60;7.57;;;;;;;-0.09;92.16;100707.11;126451;1086;110797;-73
2023/12/10 07:37:11;;;;;;;18.57;8.03;;;;;;;-0.06;91.77;100704.78;126492;1086;101842;-73
2023/12/10 07:39:41;;;;;;;17.50;7.10;;;;;;;-0.08;91.49;100710.58;126452;1086;102600;-73
2023/12/10 07:42:10;;;;;;;17.43;7.00;;;;;;;-0.10;91.43;100722.46;126460;1086;104174;-73
2023/12/10 07:44:38;;;;;;;16.20;7.30;;;;;;;-0.14;91.62;100711.00;126438;1086;102763;-73
2023/12/10 07:47:07;;;;;;;15.50;6.43;;;;;;;-0.16;91.69;100717.69;126054;1086;104178;-73
2023/12/10 07:49:36;;;;;;;12.97;6.07;;;;;;;-0.19;91.70;100710.63;126303;1086;101813;-74
2023/12/10 07:52:06;;;;;;;14.23;6.27;;;;;;;-0.14;91.39;100721.32;126143;1086;104187;-74
2023/12/10 07:54:35;;;;;;;16.43;6.80;;;;;;;-0.12;91.84;100719.75;126134;1086;103008;-73
2023/12/10 07:57:05;;;;;;;18.07;7.03;;;;;;;-0.13;91.41;100720.52;126512;1086;104181;-74
2023/12/10 07:59:34;;;;;;;16.70;7.07;;;;;;;-0.13;91.07;100717.05;126181;1086;102015;-74
2023/12/10 08:02:03;;;;;;;17.20;7.03;;;;;;;-0.08;91.63;100720.89;126201;1086;101909;-74
2023/12/10 08:04:32;;;;;;;14.93;7.17;;;;;;;-0.02;91.73;100724.90;126429;1086;102258;-74
2023/12/10 08:07:01;;;;;;;16.83;6.90;;;;;;;0.02;91.61;100717.38;126513;1086;104238;-73
2023/12/10 08:09:30;;;;;;;15.60;6.83;;;;;;;-0.03;91.23;100723.09;126117;1086;104197;-73
2023/12/10 08:11:59;;;;;;;15.67;6.97;;;;;;;-0.01;91.78;100731.84;126438;1086;101870;-74
2023/12/10 08:14:28;;;;;;;17.07;7.20;;;;;;;0.04;91.82;100731.33;126126;1086;104178;-74
2023/12/10 08:16:57;;;;;;;15.83;7.07;;;;;;;0.06;91.84;100733.23;126479;1086;104381;-74
2023/12/10 08:19:26;;;;;;;17.13;6.73;;;;;;;0.09;91.43;100730.02;126172;1086;101963;-73
2023/12/10 08:21:55;;;;;;;15.43;7.10;;;;;;;0.11;91.85;100733.60;126237;1089;102453;-74
2023/12/10 08:24:26;;;;;;;14.13;6.30;;;;;;;0.13;91.47;100732.07;126526;1086;104184;-74
2023/12/10 08:26:55;;;;;;;12.33;5.97;;;;;;;0.12;91.65;100735.42;126499;1086;104296;-74
2023/12/10 08:29:24;;;;;;;16.05;6.95;;;;;;;0.09;91.72;100735.17;126151;1086;102182;-76
2023/12/10 08:31:53;;;;;;;13.70;6.55;;;;;;;0.11;91.22;100729.37;126124;1086;104296;-73
2023/12/10 08:34:22;;;;;;;15.13;7.03;;;;;;;0.13;91.41;100732.07;126503;1086;104165;-73
2023/12/10 08:36:51;;;;;;;15.33;6.67;;;;;;;0.11;91.52;100728.44;126524;1086;104365;-74
2023/12/10 08:39:20;;;;;;;15.30;6.37;;;;;;;0.09;90.99;100728.31;126550;1086;104340;-74
2023/12/10 08:41:49;;;;;;;15.87;6.97;;;;;;;0.02;91.19;100725.12;126510;1086;104206;-73
2023/12/10 08:44:18;;;;;;;16.25;7.10;;;;;;;0.02;91.47;100717.38;126386;1086;104264;-73
2023/12/10 08:46:47;;;;;;;13.70;6.55;;;;;;;0.04;91.50;100716.73;126487;1086;104174;-74
2023/12/10 08:49:16;;;;;;;15.97;6.80;;;;;;;0.07;91.39;100718.67;126495;1086;102217;-74
2023/12/10 08:51:45;;;;;;;16.60;6.63;;;;;;;0.11;90.75;100715.55;126607;1086;104238;-74
2023/12/10 08:54:14;;;;;;;13.20;6.40;;;;;;;0.10;91.17;100703.44;126560;1086;102353;-73
2023/12/10 08:56:42;;;;;;;15.30;6.60;;;;;;;0.10;90.97;100703.44;126496;1086;104177;-74
2023/12/10 08:59:11;;;;;;;13.83;5.97;;;;;;;0.10;91.45;100708.59;126583;1086;104181;-74
2023/12/10 09:01:40;;;;;;;14.85;6.25;;;;;;;0.13;91.33;100708.84;126218;1086;104328;-73
2023/12/10 09:04:09;;;;;;;13.77;6.37;;;;;;;0.09;91.24;100717.11;126178;1085;104237;-73
2023/12/10 09:06:38;;;;;;;11.93;5.50;;;;;;;0.07;90.93;100718.67;126459;1086;104261;-73
2023/12/10 09:09:07;;;;;;;13.83;6.03;;;;;;;0.02;91.39;100713.14;126148;1086;104206;-74
2023/12/10 09:11:37;;;;;;;13.97;6.20;;;;;;;0.06;91.66;100706.54;126176;1086;104168;-73
2023/12/10 09:14:07;;;;;;;16.00;6.33;;;;;;;0.07;91.39;100706.66;126164;1086;104155;-73
2023/12/10 09:16:36;;;;;;;15.00;6.83;;;;;;;0.08;91.21;100703.31;126171;1086;101865;-74
2023/12/10 09:19:05;;;;;;;16.00;6.97;;;;;;;0.09;91.22;100697.36;126192;1086;101937;-73
2023/12/10 09:21:54;;;;;;;18.53;7.70;;;;;;;0.16;91.65;100693.61;126162;1086;104078;-74
2023/12/10 09:24:23;;;;;;;16.37;7.57;;;;;;;0.22;91.31;100691.52;126204;1086;102462;-73
2023/12/10 09:26:52;;;;;;;17.33;7.50;;;;;;;0.20;91.05;100689.59;126144;1086;104185;-73
2023/12/10 09:29:21;;;;;;;17.63;8.00;;;;;;;0.16;91.26;100694.50;126160;1086;104293;-73
2023/12/10 09:31:50;;;;;;;16.83;7.20;;;;;;;0.20;91.35;100702.48;126531;1086;104443;-73
2023/12/10 09:34:19;;;;;;;17.35;7.70;;;;;;;0.19;91.01;100691.28;126512;1086;104430;-73
2023/12/10 09:36:48;;;;;;;18.30;8.27;;;;;;;0.19;91.36;100688.70;126544;1086;104158;-73
2023/12/10 09:39:18;;;;;;;18.40;8.60;;;;;;;0.15;90.60;100689.22;126566;1086;104257;-73
2023/12/10 09:41:48;;;;;;;20.33;8.47;;;;;;;0.10;90.31;100685.38;126512;1086;102077;-73
2023/12/10 09:44:17;;;;;;;21.07;9.40;;;;;;;0.06;90.77;100680.73;126476;1086;101868;-73
2023/12/10 09:46:46;;;;;;;19.67;8.30;;;;;;;0.08;91.15;100686.91;126199;1086;102042;-73
2023/12/10 09:49:15;;;;;;;21.03;9.23;;;;;;;0.10;91.65;100687.95;126191;1086;104315;-73
2023/12/10 09:51:44;;;;;;;19.80;9.47;;;;;;;0.14;91.50;100693.48;126584;1086;102022;-73
2023/12/10 09:54:13;;;;;;;20.73;9.40;;;;;;;0.17;91.77;100690.23;126536;1086;104203;-73
2023/12/10 09:56:42;;;;;;;21.00;9.57;;;;;;;0.14;91.47;100697.72;126498;1086;102291;-73
2023/12/10 09:59:11;;;;;;;23.30;10.23;;;;;;;0.12;91.00;100689.86;126532;1086;104180;-73
2023/12/10 10:01:46;;;;;;;20.73;9.53;;;;;;;0.09;91.18;100688.72;126223;1087;104050;-73
2023/12/10 10:04:16;;;;;;;21.07;9.17;;;;;;;0.05;91.02;100697.91;126147;1086;104238;-73
2023/12/10 10:06:45;;;;;;;20.70;9.27;;;;;;;0.04;91.11;100696.09;126180;1086;104219;-73
2023/12/10 10:09:14;;;;;;;21.17;9.87;;;;;;;0.04;91.55;100696.09;126174;1086;102099;-73
2023/12/10 10:11:48;;;;;;;21.67;9.47;;;;;;;0.00;91.50;100686.33;126051;1087;104169;-73
2023/12/10 10:14:18;;;;;;;22.27;9.00;;;;;;;-0.04;91.08;100679.99;126124;1086;104418;-73
2023/12/10 10:16:50;;;;;;;22.27;9.27;;;;;;;-0.08;91.50;100677.04;126097;1086;104385;-74
2023/12/10 10:19:19;;;;;;;18.67;8.23;;;;;;;-0.11;91.02;100669.98;126168;1086;104222;-73
2023/12/10 10:21:48;;;;;;;19.57;9.07;;;;;;;-0.08;90.92;100672.80;126142;1086;104207;-73
2023/12/10 10:24:17;;;;;;;18.93;8.67;;;;;;;-0.05;91.38;100682.45;126118;1086;104264;-73
2023/12/10 10:26:46;;;;;;;19.00;8.57;;;;;;;0.01;91.72;100682.05;126156;1086;104161;-73
2023/12/10 10:29:15;;;;;;;20.23;8.67;;;;;;;0.04;91.59;100672.88;126192;1086;102005;-73
2023/12/10 10:31:47;;;;;;;19.53;8.47;;;;;;;0.07;91.21;100683.44;126192;1086;104276;-73
2023/12/10 10:34:16;;;;;;;20.47;8.77;;;;;;;0.08;91.67;100686.91;126566;1086;102493;-73
2023/12/10 10:36:46;;;;;;;19.03;8.23;;;;;;;0.07;91.35;100687.70;126403;1086;104162;-73
2023/12/10 10:39:15;;;;;;;20.97;9.30;;;;;;;0.06;91.64;100681.63;126234;1086;104206;-74
2023/12/10 10:41:44;;;;;;;19.47;8.57;;;;;;;0.13;91.79;100685.63;126185;1086;104241;-73
2023/12/10 10:44:13;;;;;;;21.30;8.70;;;;;;;0.17;91.71;100678.25;126587;1086;104228;-73
2023/12/10 10:46:42;;;;;;;21.40;9.10;;;;;;;0.17;91.15;100667.92;126145;1086;104345;-73
2023/12/10 10:49:12;;;;;;;20.47;9.03;;;;;;;0.15;91.05;100677.20;126196;1086;104187;-73
2023/12/10 10:51:41;;;;;;;21.75;9.45;;;;;;;0.21;91.39;100678.50;126197;1086;104653;-73
2023/12/10 10:54:10;;;;;;;19.57;9.57;;;;;;;0.27;91.33;100678.98;126019;1086;101857;-73
2023/12/10 10:56:39;;;;;;;19.53;8.63;;;;;;;0.29;91.33;100669.67;126083;1086;101878;-73
2023/12/10 10:59:29;;;;;;;19.75;8.80;;;;;;;0.28;91.19;100670.44;126166;1086;104183;-73
2023/12/10 11:02:00;;;;;;;20.23;9.13;;;;;;;0.26;91.50;100670.31;126096;1086;101925;-74
2023/12/10 11:04:35;;;;;;;19.47;8.93;;;;;;;0.24;91.10;100666.72;126129;1089;102223;-73
2023/12/10 11:07:04;;;;;;;21.37;9.43;;;;;;;0.24;91.55;100668.41;126134;1086;104179;-75
2023/12/10 11:09:53;;;;;;;19.53;8.73;;;;;;;0.21;91.20;100663.90;126635;1086;101929;-74
2023/12/10 11:12:45;;;;;;;21.47;9.93;;;;;;;0.22;91.56;100657.97;126307;1086;104159;-73